sensor_id;sensor_type;location;lat;lon;timestamp;P1;durP1;ratioP1;P2;durP2;ratioP2
3991;SDS011;2010;48.194;16.394;2022-12-07T00:02:23;11.50;;;9.10;;
3991;SDS011;2010;48.194;16.394;2022-12-07T00:05:06;11.80;;;9.40;;
3991;SDS011;2010;48.194;16.394;2022-12-07T00:07:35;13.57;;;9.53;;
3991;SDS011;2010;48.194;16.394;2022-12-07T00:10:14;13.60;;;10.77;;
3991;SDS011;2010;48.194;16.394;2022-12-07T00:12:50;12.17;;;9.03;;
3991;SDS011;2010;48.194;16.394;2022-12-07T00:15:29;10.20;;;8.67;;
3991;SDS011;2010;48.194;16.394;2022-12-07T00:18:07;11.83;;;9.70;;
3991;SDS011;2010;48.194;16.394;2022-12-07T00:20:37;12.23;;;8.60;;
3991;SDS011;2010;48.194;16.394;2022-12-07T00:23:06;9.33;;;7.67;;
3991;SDS011;2010;48.194;16.394;2022-12-07T00:25:48;11.07;;;9.20;;
3991;SDS011;2010;48.194;16.394;2022-12-07T00:28:26;12.90;;;10.10;;
3991;SDS011;2010;48.194;16.394;2022-12-07T00:30:59;11.00;;;8.93;;
3991;SDS011;2010;48.194;16.394;2022-12-07T00:33:30;13.17;;;10.07;;
3991;SDS011;2010;48.194;16.394;2022-12-07T00:36:09;10.63;;;8.93;;
3991;SDS011;2010;48.194;16.394;2022-12-07T00:38:52;12.43;;;10.13;;
3991;SDS011;2010;48.194;16.394;2022-12-07T00:41:23;12.97;;;10.37;;
3991;SDS011;2010;48.194;16.394;2022-12-07T00:43:55;12.20;;;10.33;;
3991;SDS011;2010;48.194;16.394;2022-12-07T00:46:25;18.10;;;9.63;;
3991;SDS011;2010;48.194;16.394;2022-12-07T00:48:56;14.63;;;10.80;;
3991;SDS011;2010;48.194;16.394;2022-12-07T00:51:27;14.07;;;10.77;;
3991;SDS011;2010;48.194;16.394;2022-12-07T00:54:01;12.80;;;10.60;;
3991;SDS011;2010;48.194;16.394;2022-12-07T00:56:32;15.83;;;11.50;;
3991;SDS011;2010;48.194;16.394;2022-12-07T00:59:30;14.70;;;11.60;;
3991;SDS011;2010;48.194;16.394;2022-12-07T01:01:58;17.00;;;12.10;;
3991;SDS011;2010;48.194;16.394;2022-12-07T01:04:29;17.00;;;13.00;;
3991;SDS011;2010;48.194;16.394;2022-12-07T01:07:07;14.80;;;11.50;;
3991;SDS011;2010;48.194;16.394;2022-12-07T01:09:41;16.80;;;12.80;;
3991;SDS011;2010;48.194;16.394;2022-12-07T01:12:20;16.87;;;13.27;;
3991;SDS011;2010;48.194;16.394;2022-12-07T01:15:07;15.97;;;12.83;;
3991;SDS011;2010;48.194;16.394;2022-12-07T01:17:40;20.43;;;13.53;;
3991;SDS011;2010;48.194;16.394;2022-12-07T01:20:18;17.13;;;13.40;;
3991;SDS011;2010;48.194;16.394;2022-12-07T01:22:48;16.30;;;12.83;;
3991;SDS011;2010;48.194;16.394;2022-12-07T01:25:21;17.10;;;12.50;;
3991;SDS011;2010;48.194;16.394;2022-12-07T01:27:54;16.93;;;12.80;;
3991;SDS011;2010;48.194;16.394;2022-12-07T01:30:23;16.60;;;13.77;;
3991;SDS011;2010;48.194;16.394;2022-12-07T01:32:51;16.37;;;13.60;;
3991;SDS011;2010;48.194;16.394;2022-12-07T01:35:19;15.73;;;12.70;;
3991;SDS011;2010;48.194;16.394;2022-12-07T01:37:48;17.57;;;13.50;;
3991;SDS011;2010;48.194;16.394;2022-12-07T01:40:16;19.00;;;14.37;;
3991;SDS011;2010;48.194;16.394;2022-12-07T01:42:44;18.43;;;14.77;;
3991;SDS011;2010;48.194;16.394;2022-12-07T01:48:12;16.90;;;13.90;;
3991;SDS011;2010;48.194;16.394;2022-12-07T01:50:43;16.77;;;13.97;;
3991;SDS011;2010;48.194;16.394;2022-12-07T01:53:12;18.20;;;13.10;;
3991;SDS011;2010;48.194;16.394;2022-12-07T01:55:42;20.40;;;15.13;;
3991;SDS011;2010;48.194;16.394;2022-12-07T01:58:12;19.00;;;14.27;;
3991;SDS011;2010;48.194;16.394;2022-12-07T02:00:41;20.53;;;15.70;;
3991;SDS011;2010;48.194;16.394;2022-12-07T02:03:11;18.80;;;15.17;;
3991;SDS011;2010;48.194;16.394;2022-12-07T02:05:42;20.30;;;15.77;;
3991;SDS011;2010;48.194;16.394;2022-12-07T02:08:11;19.40;;;15.53;;
3991;SDS011;2010;48.194;16.394;2022-12-07T02:10:40;20.70;;;15.97;;
3991;SDS011;2010;48.194;16.394;2022-12-07T02:13:09;25.10;;;15.07;;
3991;SDS011;2010;48.194;16.394;2022-12-07T02:15:45;20.17;;;14.70;;
3991;SDS011;2010;48.194;16.394;2022-12-07T02:18:35;20.33;;;14.50;;
3991;SDS011;2010;48.194;16.394;2022-12-07T02:21:13;19.20;;;14.43;;
3991;SDS011;2010;48.194;16.394;2022-12-07T02:23:49;19.77;;;13.67;;
3991;SDS011;2010;48.194;16.394;2022-12-07T02:29:25;21.97;;;14.80;;
3991;SDS011;2010;48.194;16.394;2022-12-07T02:31:56;19.90;;;13.83;;
3991;SDS011;2010;48.194;16.394;2022-12-07T02:34:32;19.30;;;15.33;;
3991;SDS011;2010;48.194;16.394;2022-12-07T02:37:07;17.80;;;13.47;;
3991;SDS011;2010;48.194;16.394;2022-12-07T02:39:39;20.23;;;13.83;;
3991;SDS011;2010;48.194;16.394;2022-12-07T02:42:10;22.13;;;14.83;;
3991;SDS011;2010;48.194;16.394;2022-12-07T02:44:43;19.40;;;13.33;;
3991;SDS011;2010;48.194;16.394;2022-12-07T02:47:12;19.73;;;14.07;;
3991;SDS011;2010;48.194;16.394;2022-12-07T02:49:42;19.60;;;13.63;;
3991;SDS011;2010;48.194;16.394;2022-12-07T02:52:10;18.23;;;13.23;;
3991;SDS011;2010;48.194;16.394;2022-12-07T02:54:38;19.97;;;13.90;;
3991;SDS011;2010;48.194;16.394;2022-12-07T02:57:11;20.30;;;14.13;;
3991;SDS011;2010;48.194;16.394;2022-12-07T03:02:49;18.53;;;13.17;;
3991;SDS011;2010;48.194;16.394;2022-12-07T03:05:39;19.50;;;12.93;;
3991;SDS011;2010;48.194;16.394;2022-12-07T03:08:44;19.10;;;13.50;;
3991;SDS011;2010;48.194;16.394;2022-12-07T03:11:23;16.63;;;12.97;;
3991;SDS011;2010;48.194;16.394;2022-12-07T03:13:59;17.10;;;12.80;;
3991;SDS011;2010;48.194;16.394;2022-12-07T03:16:35;16.50;;;12.83;;
3991;SDS011;2010;48.194;16.394;2022-12-07T03:19:08;20.23;;;13.10;;
3991;SDS011;2010;48.194;16.394;2022-12-07T03:21:39;16.47;;;12.80;;
3991;SDS011;2010;48.194;16.394;2022-12-07T03:24:10;18.87;;;12.60;;
3991;SDS011;2010;48.194;16.394;2022-12-07T03:26:44;16.47;;;12.27;;
3991;SDS011;2010;48.194;16.394;2022-12-07T03:29:17;17.50;;;11.90;;
3991;SDS011;2010;48.194;16.394;2022-12-07T03:31:58;17.07;;;13.17;;
3991;SDS011;2010;48.194;16.394;2022-12-07T03:34:32;17.50;;;13.40;;
3991;SDS011;2010;48.194;16.394;2022-12-07T03:37:12;19.07;;;13.00;;
3991;SDS011;2010;48.194;16.394;2022-12-07T03:39:44;18.10;;;12.57;;
3991;SDS011;2010;48.194;16.394;2022-12-07T03:42:21;19.07;;;13.33;;
3991;SDS011;2010;48.194;16.394;2022-12-07T03:44:59;17.40;;;12.80;;
3991;SDS011;2010;48.194;16.394;2022-12-07T03:47:41;16.27;;;12.13;;
3991;SDS011;2010;48.194;16.394;2022-12-07T03:50:17;16.70;;;11.40;;
3991;SDS011;2010;48.194;16.394;2022-12-07T03:52:55;14.93;;;11.63;;
3991;SDS011;2010;48.194;16.394;2022-12-07T03:55:29;14.97;;;11.50;;
3991;SDS011;2010;48.194;16.394;2022-12-07T03:58:03;16.03;;;11.23;;
3991;SDS011;2010;48.194;16.394;2022-12-07T04:00:34;15.83;;;11.13;;
3991;SDS011;2010;48.194;16.394;2022-12-07T04:03:06;14.50;;;11.33;;
3991;SDS011;2010;48.194;16.394;2022-12-07T04:05:36;15.97;;;11.17;;
3991;SDS011;2010;48.194;16.394;2022-12-07T04:08:12;13.77;;;11.00;;
3991;SDS011;2010;48.194;16.394;2022-12-07T04:10:44;15.43;;;12.00;;
3991;SDS011;2010;48.194;16.394;2022-12-07T04:13:23;13.83;;;10.30;;
3991;SDS011;2010;48.194;16.394;2022-12-07T04:16:01;14.90;;;10.13;;
3991;SDS011;2010;48.194;16.394;2022-12-07T04:18:48;15.40;;;10.83;;
3991;SDS011;2010;48.194;16.394;2022-12-07T04:21:20;16.40;;;10.70;;
3991;SDS011;2010;48.194;16.394;2022-12-07T04:23:51;14.33;;;10.50;;
3991;SDS011;2010;48.194;16.394;2022-12-07T04:26:23;12.93;;;10.03;;
3991;SDS011;2010;48.194;16.394;2022-12-07T04:29:05;14.43;;;10.33;;
3991;SDS011;2010;48.194;16.394;2022-12-07T04:31:36;11.17;;;9.20;;
3991;SDS011;2010;48.194;16.394;2022-12-07T04:34:14;12.90;;;9.77;;
3991;SDS011;2010;48.194;16.394;2022-12-07T04:36:42;14.17;;;10.43;;
3991;SDS011;2010;48.194;16.394;2022-12-07T04:39:17;15.90;;;10.37;;
3991;SDS011;2010;48.194;16.394;2022-12-07T04:41:52;13.13;;;9.50;;
3991;SDS011;2010;48.194;16.394;2022-12-07T04:44:23;13.23;;;9.93;;
3991;SDS011;2010;48.194;16.394;2022-12-07T04:46:53;15.23;;;10.10;;
3991;SDS011;2010;48.194;16.394;2022-12-07T04:49:39;11.87;;;9.30;;
3991;SDS011;2010;48.194;16.394;2022-12-07T04:52:17;14.37;;;10.17;;
3991;SDS011;2010;48.194;16.394;2022-12-07T04:54:46;12.77;;;9.60;;
3991;SDS011;2010;48.194;16.394;2022-12-07T04:57:17;12.27;;;9.60;;
3991;SDS011;2010;48.194;16.394;2022-12-07T04:59:49;12.90;;;9.90;;
3991;SDS011;2010;48.194;16.394;2022-12-07T05:02:26;13.07;;;10.00;;
3991;SDS011;2010;48.194;16.394;2022-12-07T05:05:14;13.83;;;10.33;;
3991;SDS011;2010;48.194;16.394;2022-12-07T05:07:47;12.80;;;9.80;;
3991;SDS011;2010;48.194;16.394;2022-12-07T05:10:19;14.10;;;10.57;;
3991;SDS011;2010;48.194;16.394;2022-12-07T05:12:53;13.33;;;9.60;;
3991;SDS011;2010;48.194;16.394;2022-12-07T05:15:25;13.10;;;9.40;;
3991;SDS011;2010;48.194;16.394;2022-12-07T05:17:54;12.90;;;9.57;;
3991;SDS011;2010;48.194;16.394;2022-12-07T05:20:34;12.00;;;8.30;;
3991;SDS011;2010;48.194;16.394;2022-12-07T05:23:08;11.53;;;9.30;;
3991;SDS011;2010;48.194;16.394;2022-12-07T05:25:36;10.90;;;8.70;;
3991;SDS011;2010;48.194;16.394;2022-12-07T05:28:11;13.23;;;9.10;;
3991;SDS011;2010;48.194;16.394;2022-12-07T05:30:39;10.43;;;8.43;;
3991;SDS011;2010;48.194;16.394;2022-12-07T05:33:24;12.00;;;8.90;;
3991;SDS011;2010;48.194;16.394;2022-12-07T05:35:54;9.53;;;7.90;;
3991;SDS011;2010;48.194;16.394;2022-12-07T05:38:24;11.70;;;9.47;;
3991;SDS011;2010;48.194;16.394;2022-12-07T05:40:56;14.47;;;9.17;;
3991;SDS011;2010;48.194;16.394;2022-12-07T05:43:31;11.67;;;8.67;;
3991;SDS011;2010;48.194;16.394;2022-12-07T05:46:14;15.50;;;8.47;;
3991;SDS011;2010;48.194;16.394;2022-12-07T05:48:44;12.10;;;8.67;;
3991;SDS011;2010;48.194;16.394;2022-12-07T05:51:15;10.60;;;8.30;;
3991;SDS011;2010;48.194;16.394;2022-12-07T05:53:44;10.37;;;7.83;;
3991;SDS011;2010;48.194;16.394;2022-12-07T05:56:18;11.33;;;7.17;;
3991;SDS011;2010;48.194;16.394;2022-12-07T05:58:51;13.47;;;8.67;;
3991;SDS011;2010;48.194;16.394;2022-12-07T06:01:39;10.17;;;7.60;;
3991;SDS011;2010;48.194;16.394;2022-12-07T06:04:08;12.17;;;8.00;;
3991;SDS011;2010;48.194;16.394;2022-12-07T06:09:32;8.80;;;7.10;;
3991;SDS011;2010;48.194;16.394;2022-12-07T06:12:11;9.03;;;6.90;;
3991;SDS011;2010;48.194;16.394;2022-12-07T06:15:02;7.00;;;6.30;;
3991;SDS011;2010;48.194;16.394;2022-12-07T06:17:32;11.83;;;7.00;;
3991;SDS011;2010;48.194;16.394;2022-12-07T06:20:01;10.57;;;7.90;;
3991;SDS011;2010;48.194;16.394;2022-12-07T06:22:33;10.47;;;7.63;;
3991;SDS011;2010;48.194;16.394;2022-12-07T06:25:02;9.97;;;8.17;;
3991;SDS011;2010;48.194;16.394;2022-12-07T06:27:36;10.43;;;8.30;;
3991;SDS011;2010;48.194;16.394;2022-12-07T06:30:15;10.80;;;7.80;;
3991;SDS011;2010;48.194;16.394;2022-12-07T06:32:47;10.10;;;7.70;;
3991;SDS011;2010;48.194;16.394;2022-12-07T06:35:15;10.23;;;7.50;;
3991;SDS011;2010;48.194;16.394;2022-12-07T06:37:49;10.07;;;8.00;;
3991;SDS011;2010;48.194;16.394;2022-12-07T06:40:25;10.30;;;8.00;;
3991;SDS011;2010;48.194;16.394;2022-12-07T06:42:53;8.70;;;7.07;;
3991;SDS011;2010;48.194;16.394;2022-12-07T06:45:25;9.77;;;7.83;;
3991;SDS011;2010;48.194;16.394;2022-12-07T06:47:53;12.07;;;7.97;;
3991;SDS011;2010;48.194;16.394;2022-12-07T06:50:25;10.70;;;8.20;;
3991;SDS011;2010;48.194;16.394;2022-12-07T06:53:08;12.07;;;7.60;;
3991;SDS011;2010;48.194;16.394;2022-12-07T06:55:37;10.50;;;7.97;;
3991;SDS011;2010;48.194;16.394;2022-12-07T06:58:07;10.03;;;7.53;;
3991;SDS011;2010;48.194;16.394;2022-12-07T07:00:47;11.57;;;7.70;;
3991;SDS011;2010;48.194;16.394;2022-12-07T07:03:19;10.67;;;7.83;;
3991;SDS011;2010;48.194;16.394;2022-12-07T07:05:51;9.10;;;7.20;;
3991;SDS011;2010;48.194;16.394;2022-12-07T07:08:21;13.00;;;8.00;;
3991;SDS011;2010;48.194;16.394;2022-12-07T07:10:57;8.70;;;7.60;;
3991;SDS011;2010;48.194;16.394;2022-12-07T07:13:28;8.80;;;7.50;;
3991;SDS011;2010;48.194;16.394;2022-12-07T07:15:58;11.00;;;6.93;;
3991;SDS011;2010;48.194;16.394;2022-12-07T07:18:30;10.40;;;7.10;;
3991;SDS011;2010;48.194;16.394;2022-12-07T07:21:02;9.47;;;7.20;;
3991;SDS011;2010;48.194;16.394;2022-12-07T07:23:43;8.10;;;7.30;;
3991;SDS011;2010;48.194;16.394;2022-12-07T07:26:16;7.90;;;6.83;;
3991;SDS011;2010;48.194;16.394;2022-12-07T07:28:49;8.83;;;6.87;;
3991;SDS011;2010;48.194;16.394;2022-12-07T07:31:21;10.10;;;7.50;;
3991;SDS011;2010;48.194;16.394;2022-12-07T07:33:53;10.70;;;8.37;;
3991;SDS011;2010;48.194;16.394;2022-12-07T07:36:23;8.13;;;6.77;;
3991;SDS011;2010;48.194;16.394;2022-12-07T07:38:55;9.67;;;6.63;;
3991;SDS011;2010;48.194;16.394;2022-12-07T07:41:26;8.03;;;6.57;;
3991;SDS011;2010;48.194;16.394;2022-12-07T07:43:56;9.67;;;7.60;;
3991;SDS011;2010;48.194;16.394;2022-12-07T07:46:27;8.53;;;6.40;;
3991;SDS011;2010;48.194;16.394;2022-12-07T07:48:57;6.77;;;6.00;;
3991;SDS011;2010;48.194;16.394;2022-12-07T07:51:26;8.20;;;7.10;;
3991;SDS011;2010;48.194;16.394;2022-12-07T07:53:59;8.27;;;6.33;;
3991;SDS011;2010;48.194;16.394;2022-12-07T07:56:29;7.40;;;5.73;;
3991;SDS011;2010;48.194;16.394;2022-12-07T07:58:59;7.90;;;6.13;;
3991;SDS011;2010;48.194;16.394;2022-12-07T08:01:31;8.80;;;6.57;;
3991;SDS011;2010;48.194;16.394;2022-12-07T08:04:18;8.37;;;6.27;;
3991;SDS011;2010;48.194;16.394;2022-12-07T08:06:51;8.50;;;6.90;;
3991;SDS011;2010;48.194;16.394;2022-12-07T08:09:24;7.90;;;6.43;;
3991;SDS011;2010;48.194;16.394;2022-12-07T08:12:04;9.57;;;6.90;;
3991;SDS011;2010;48.194;16.394;2022-12-07T08:14:33;10.13;;;6.47;;
3991;SDS011;2010;48.194;16.394;2022-12-07T08:17:09;9.30;;;7.70;;
3991;SDS011;2010;48.194;16.394;2022-12-07T08:19:40;8.97;;;6.90;;
3991;SDS011;2010;48.194;16.394;2022-12-07T08:22:08;7.97;;;7.10;;
3991;SDS011;2010;48.194;16.394;2022-12-07T08:24:47;7.20;;;6.50;;
3991;SDS011;2010;48.194;16.394;2022-12-07T08:27:18;7.67;;;6.87;;
3991;SDS011;2010;48.194;16.394;2022-12-07T08:29:55;7.57;;;6.47;;
3991;SDS011;2010;48.194;16.394;2022-12-07T08:32:27;10.33;;;6.83;;
3991;SDS011;2010;48.194;16.394;2022-12-07T08:34:58;7.20;;;6.30;;
3991;SDS011;2010;48.194;16.394;2022-12-07T08:37:36;9.97;;;6.57;;
3991;SDS011;2010;48.194;16.394;2022-12-07T08:40:07;10.30;;;6.63;;
3991;SDS011;2010;48.194;16.394;2022-12-07T08:42:48;13.50;;;6.73;;
3991;SDS011;2010;48.194;16.394;2022-12-07T08:45:18;7.07;;;6.17;;
3991;SDS011;2010;48.194;16.394;2022-12-07T08:47:55;8.80;;;6.80;;
3991;SDS011;2010;48.194;16.394;2022-12-07T08:50:27;6.73;;;6.03;;
3991;SDS011;2010;48.194;16.394;2022-12-07T08:53:10;7.03;;;6.20;;
3991;SDS011;2010;48.194;16.394;2022-12-07T08:55:52;9.93;;;6.80;;
3991;SDS011;2010;48.194;16.394;2022-12-07T08:58:25;8.50;;;6.63;;
3991;SDS011;2010;48.194;16.394;2022-12-07T09:00:55;6.80;;;6.20;;
3991;SDS011;2010;48.194;16.394;2022-12-07T09:03:34;6.67;;;5.97;;
3991;SDS011;2010;48.194;16.394;2022-12-07T09:06:07;5.87;;;5.27;;
3991;SDS011;2010;48.194;16.394;2022-12-07T09:08:39;7.97;;;6.37;;
3991;SDS011;2010;48.194;16.394;2022-12-07T09:11:21;7.80;;;7.00;;
3991;SDS011;2010;48.194;16.394;2022-12-07T09:14:06;7.70;;;6.80;;
3991;SDS011;2010;48.194;16.394;2022-12-07T09:16:37;6.77;;;6.17;;
3991;SDS011;2010;48.194;16.394;2022-12-07T09:19:16;7.40;;;6.30;;
3991;SDS011;2010;48.194;16.394;2022-12-07T09:21:45;10.07;;;6.70;;
3991;SDS011;2010;48.194;16.394;2022-12-07T09:24:14;6.80;;;6.10;;
3991;SDS011;2010;48.194;16.394;2022-12-07T09:26:55;8.03;;;6.90;;
3991;SDS011;2010;48.194;16.394;2022-12-07T09:29:28;7.70;;;6.50;;
3991;SDS011;2010;48.194;16.394;2022-12-07T09:31:58;7.70;;;6.40;;
3991;SDS011;2010;48.194;16.394;2022-12-07T09:34:38;6.60;;;5.80;;
3991;SDS011;2010;48.194;16.394;2022-12-07T09:37:14;8.87;;;6.53;;
3991;SDS011;2010;48.194;16.394;2022-12-07T09:39:43;8.30;;;6.73;;
3991;SDS011;2010;48.194;16.394;2022-12-07T09:45:15;7.80;;;7.00;;
3991;SDS011;2010;48.194;16.394;2022-12-07T09:47:46;7.93;;;6.70;;
3991;SDS011;2010;48.194;16.394;2022-12-07T09:50:18;7.63;;;6.80;;
3991;SDS011;2010;48.194;16.394;2022-12-07T09:52:50;8.63;;;6.97;;
3991;SDS011;2010;48.194;16.394;2022-12-07T09:55:28;8.57;;;7.13;;
3991;SDS011;2010;48.194;16.394;2022-12-07T09:58:16;7.80;;;7.10;;
3991;SDS011;2010;48.194;16.394;2022-12-07T10:00:50;10.60;;;7.37;;
3991;SDS011;2010;48.194;16.394;2022-12-07T10:03:19;9.43;;;7.10;;
3991;SDS011;2010;48.194;16.394;2022-12-07T10:05:49;10.73;;;7.50;;
3991;SDS011;2010;48.194;16.394;2022-12-07T10:08:24;7.80;;;7.00;;
3991;SDS011;2010;48.194;16.394;2022-12-07T10:10:56;8.23;;;7.27;;
3991;SDS011;2010;48.194;16.394;2022-12-07T10:13:37;7.80;;;6.83;;
3991;SDS011;2010;48.194;16.394;2022-12-07T10:16:24;7.53;;;6.70;;
3991;SDS011;2010;48.194;16.394;2022-12-07T10:19:27;12.23;;;6.57;;
3991;SDS011;2010;48.194;16.394;2022-12-07T10:22:09;7.83;;;7.13;;
3991;SDS011;2010;48.194;16.394;2022-12-07T10:24:43;7.20;;;6.50;;
3991;SDS011;2010;48.194;16.394;2022-12-07T10:27:17;7.63;;;6.83;;
3991;SDS011;2010;48.194;16.394;2022-12-07T10:29:52;6.97;;;6.20;;
3991;SDS011;2010;48.194;16.394;2022-12-07T10:32:29;7.40;;;6.70;;
3991;SDS011;2010;48.194;16.394;2022-12-07T10:35:18;7.60;;;6.00;;
3991;SDS011;2010;48.194;16.394;2022-12-07T10:37:51;6.83;;;6.13;;
3991;SDS011;2010;48.194;16.394;2022-12-07T10:40:29;6.87;;;6.17;;
3991;SDS011;2010;48.194;16.394;2022-12-07T10:43:15;7.47;;;6.77;;
3991;SDS011;2010;48.194;16.394;2022-12-07T10:46:05;9.50;;;6.40;;
3991;SDS011;2010;48.194;16.394;2022-12-07T10:49:10;8.13;;;6.73;;
3991;SDS011;2010;48.194;16.394;2022-12-07T10:51:53;7.20;;;6.43;;
3991;SDS011;2010;48.194;16.394;2022-12-07T10:54:32;10.90;;;6.83;;
3991;SDS011;2010;48.194;16.394;2022-12-07T10:57:16;6.33;;;5.73;;
3991;SDS011;2010;48.194;16.394;2022-12-07T10:59:54;6.83;;;6.00;;
3991;SDS011;2010;48.194;16.394;2022-12-07T11:02:40;9.30;;;6.40;;
3991;SDS011;2010;48.194;16.394;2022-12-07T11:05:20;8.53;;;6.20;;
3991;SDS011;2010;48.194;16.394;2022-12-07T11:08:00;10.37;;;7.80;;
3991;SDS011;2010;48.194;16.394;2022-12-07T11:10:40;7.67;;;6.50;;
3991;SDS011;2010;48.194;16.394;2022-12-07T11:13:24;9.57;;;7.97;;
3991;SDS011;2010;48.194;16.394;2022-12-07T11:16:29;9.90;;;7.37;;
3991;SDS011;2010;48.194;16.394;2022-12-07T11:19:10;7.60;;;6.80;;
3991;SDS011;2010;48.194;16.394;2022-12-07T11:21:56;7.50;;;6.13;;
3991;SDS011;2010;48.194;16.394;2022-12-07T11:24:37;7.27;;;6.10;;
3991;SDS011;2010;48.194;16.394;2022-12-07T11:27:14;9.27;;;7.30;;
3991;SDS011;2010;48.194;16.394;2022-12-07T11:30:08;9.23;;;7.17;;
3991;SDS011;2010;48.194;16.394;2022-12-07T11:35:43;8.63;;;6.97;;
3991;SDS011;2010;48.194;16.394;2022-12-07T11:38:16;7.23;;;6.50;;
3991;SDS011;2010;48.194;16.394;2022-12-07T11:40:53;6.57;;;5.80;;
3991;SDS011;2010;48.194;16.394;2022-12-07T11:43:43;7.07;;;6.20;;
3991;SDS011;2010;48.194;16.394;2022-12-07T11:46:18;6.10;;;5.50;;
3991;SDS011;2010;48.194;16.394;2022-12-07T11:48:49;8.37;;;6.10;;
3991;SDS011;2010;48.194;16.394;2022-12-07T11:51:21;7.43;;;5.77;;
3991;SDS011;2010;48.194;16.394;2022-12-07T11:53:59;7.57;;;6.13;;
3991;SDS011;2010;48.194;16.394;2022-12-07T11:56:30;6.47;;;5.87;;
3991;SDS011;2010;48.194;16.394;2022-12-07T11:59:00;6.60;;;6.00;;
3991;SDS011;2010;48.194;16.394;2022-12-07T12:01:36;6.80;;;6.10;;
3991;SDS011;2010;48.194;16.394;2022-12-07T12:04:15;7.00;;;6.30;;
3991;SDS011;2010;48.194;16.394;2022-12-07T12:06:50;8.83;;;6.63;;
3991;SDS011;2010;48.194;16.394;2022-12-07T12:09:21;6.90;;;6.20;;
3991;SDS011;2010;48.194;16.394;2022-12-07T12:15:39;7.00;;;5.90;;
3991;SDS011;2010;48.194;16.394;2022-12-07T12:18:37;7.73;;;6.73;;
3991;SDS011;2010;48.194;16.394;2022-12-07T12:21:13;6.70;;;6.03;;
3991;SDS011;2010;48.194;16.394;2022-12-07T12:23:48;9.07;;;6.60;;
3991;SDS011;2010;48.194;16.394;2022-12-07T12:26:18;11.63;;;7.03;;
3991;SDS011;2010;48.194;16.394;2022-12-07T12:28:52;8.70;;;6.47;;
3991;SDS011;2010;48.194;16.394;2022-12-07T12:31:31;6.97;;;6.27;;
3991;SDS011;2010;48.194;16.394;2022-12-07T12:34:03;6.80;;;5.83;;
3991;SDS011;2010;48.194;16.394;2022-12-07T12:39:20;7.83;;;6.20;;
3991;SDS011;2010;48.194;16.394;2022-12-07T12:41:56;10.43;;;6.40;;
3991;SDS011;2010;48.194;16.394;2022-12-07T12:50:28;7.20;;;6.43;;
3991;SDS011;2010;48.194;16.394;2022-12-07T12:53:19;7.63;;;6.80;;
3991;SDS011;2010;48.194;16.394;2022-12-07T12:58:50;7.83;;;7.03;;
3991;SDS011;2010;48.194;16.394;2022-12-07T13:01:51;9.07;;;6.70;;
3991;SDS011;2010;48.194;16.394;2022-12-07T13:10:21;7.43;;;6.37;;
3991;SDS011;2010;48.194;16.394;2022-12-07T13:12:57;8.00;;;6.97;;
3991;SDS011;2010;48.194;16.394;2022-12-07T13:15:32;9.53;;;6.30;;
3991;SDS011;2010;48.194;16.394;2022-12-07T13:18:03;8.97;;;6.93;;
3991;SDS011;2010;48.194;16.394;2022-12-07T13:20:47;7.73;;;6.73;;
3991;SDS011;2010;48.194;16.394;2022-12-07T13:23:23;10.27;;;7.27;;
3991;SDS011;2010;48.194;16.394;2022-12-07T13:26:04;10.10;;;7.03;;
3991;SDS011;2010;48.194;16.394;2022-12-07T13:28:50;9.40;;;7.87;;
3991;SDS011;2010;48.194;16.394;2022-12-07T13:31:23;8.70;;;7.07;;
3991;SDS011;2010;48.194;16.394;2022-12-07T13:34:00;8.33;;;7.00;;
3991;SDS011;2010;48.194;16.394;2022-12-07T13:36:30;10.30;;;6.97;;
3991;SDS011;2010;48.194;16.394;2022-12-07T13:39:16;8.40;;;6.50;;
3991;SDS011;2010;48.194;16.394;2022-12-07T13:41:49;10.73;;;7.77;;
3991;SDS011;2010;48.194;16.394;2022-12-07T13:44:26;12.20;;;7.30;;
3991;SDS011;2010;48.194;16.394;2022-12-07T13:47:11;10.13;;;7.90;;
3991;SDS011;2010;48.194;16.394;2022-12-07T13:49:49;11.30;;;8.13;;
3991;SDS011;2010;48.194;16.394;2022-12-07T13:52:24;10.87;;;7.80;;
3991;SDS011;2010;48.194;16.394;2022-12-07T13:54:56;9.70;;;6.73;;
3991;SDS011;2010;48.194;16.394;2022-12-07T13:57:45;9.93;;;7.53;;
3991;SDS011;2010;48.194;16.394;2022-12-07T14:00:29;9.50;;;7.50;;
3991;SDS011;2010;48.194;16.394;2022-12-07T14:03:25;9.00;;;6.87;;
3991;SDS011;2010;48.194;16.394;2022-12-07T14:11:57;10.07;;;7.70;;
3991;SDS011;2010;48.194;16.394;2022-12-07T14:14:29;9.90;;;7.30;;
3991;SDS011;2010;48.194;16.394;2022-12-07T14:17:18;13.73;;;9.33;;
3991;SDS011;2010;48.194;16.394;2022-12-07T14:19:53;13.73;;;9.70;;
3991;SDS011;2010;48.194;16.394;2022-12-07T14:22:33;10.70;;;7.03;;
3991;SDS011;2010;48.194;16.394;2022-12-07T14:25:15;10.00;;;8.20;;
3991;SDS011;2010;48.194;16.394;2022-12-07T14:27:51;15.63;;;8.77;;
3991;SDS011;2010;48.194;16.394;2022-12-07T14:30:29;10.13;;;7.90;;
3991;SDS011;2010;48.194;16.394;2022-12-07T14:33:04;11.87;;;9.30;;
3991;SDS011;2010;48.194;16.394;2022-12-07T14:35:36;12.10;;;9.00;;
3991;SDS011;2010;48.194;16.394;2022-12-07T14:38:08;8.90;;;8.00;;
3991;SDS011;2010;48.194;16.394;2022-12-07T14:40:39;11.07;;;9.47;;
3991;SDS011;2010;48.194;16.394;2022-12-07T14:43:09;10.90;;;9.13;;
3991;SDS011;2010;48.194;16.394;2022-12-07T14:45:43;15.67;;;10.57;;
3991;SDS011;2010;48.194;16.394;2022-12-07T14:48:13;21.53;;;11.63;;
3991;SDS011;2010;48.194;16.394;2022-12-07T14:51:07;10.47;;;8.40;;
3991;SDS011;2010;48.194;16.394;2022-12-07T14:53:59;11.13;;;8.60;;
3991;SDS011;2010;48.194;16.394;2022-12-07T14:56:31;11.20;;;8.30;;
3991;SDS011;2010;48.194;16.394;2022-12-07T14:59:00;12.20;;;9.47;;
3991;SDS011;2010;48.194;16.394;2022-12-07T15:01:36;16.03;;;11.00;;
3991;SDS011;2010;48.194;16.394;2022-12-07T15:04:18;10.77;;;9.03;;
3991;SDS011;2010;48.194;16.394;2022-12-07T15:06:54;10.30;;;8.17;;
3991;SDS011;2010;48.194;16.394;2022-12-07T15:09:27;14.50;;;9.63;;
3991;SDS011;2010;48.194;16.394;2022-12-07T15:12:01;27.23;;;14.13;;
3991;SDS011;2010;48.194;16.394;2022-12-07T15:14:31;21.17;;;13.07;;
3991;SDS011;2010;48.194;16.394;2022-12-07T15:17:00;16.17;;;10.43;;
3991;SDS011;2010;48.194;16.394;2022-12-07T15:19:40;20.80;;;13.00;;
3991;SDS011;2010;48.194;16.394;2022-12-07T15:22:08;16.67;;;11.53;;
3991;SDS011;2010;48.194;16.394;2022-12-07T15:24:41;12.20;;;9.77;;
3991;SDS011;2010;48.194;16.394;2022-12-07T15:27:17;14.30;;;9.77;;
3991;SDS011;2010;48.194;16.394;2022-12-07T15:29:48;16.37;;;10.90;;
3991;SDS011;2010;48.194;16.394;2022-12-07T15:32:24;11.30;;;9.50;;
3991;SDS011;2010;48.194;16.394;2022-12-07T15:35:12;19.37;;;13.83;;
3991;SDS011;2010;48.194;16.394;2022-12-07T15:37:46;17.50;;;13.13;;
3991;SDS011;2010;48.194;16.394;2022-12-07T15:40:15;16.60;;;10.50;;
3991;SDS011;2010;48.194;16.394;2022-12-07T15:43:00;15.30;;;10.80;;
3991;SDS011;2010;48.194;16.394;2022-12-07T15:45:31;15.63;;;10.87;;
3991;SDS011;2010;48.194;16.394;2022-12-07T15:48:00;14.90;;;11.13;;
3991;SDS011;2010;48.194;16.394;2022-12-07T15:51:07;17.50;;;11.17;;
3991;SDS011;2010;48.194;16.394;2022-12-07T15:53:51;15.90;;;11.33;;
3991;SDS011;2010;48.194;16.394;2022-12-07T15:56:21;22.83;;;12.13;;
3991;SDS011;2010;48.194;16.394;2022-12-07T15:58:56;17.37;;;10.30;;
3991;SDS011;2010;48.194;16.394;2022-12-07T16:01:27;18.93;;;11.57;;
3991;SDS011;2010;48.194;16.394;2022-12-07T16:04:03;24.07;;;13.50;;
3991;SDS011;2010;48.194;16.394;2022-12-07T16:06:55;23.00;;;14.13;;
3991;SDS011;2010;48.194;16.394;2022-12-07T16:09:24;16.83;;;10.80;;
3991;SDS011;2010;48.194;16.394;2022-12-07T16:11:58;15.57;;;10.40;;
3991;SDS011;2010;48.194;16.394;2022-12-07T16:14:27;17.00;;;11.73;;
3991;SDS011;2010;48.194;16.394;2022-12-07T16:16:55;17.23;;;11.63;;
3991;SDS011;2010;48.194;16.394;2022-12-07T16:19:34;15.97;;;10.60;;
3991;SDS011;2010;48.194;16.394;2022-12-07T16:22:11;15.10;;;10.33;;
3991;SDS011;2010;48.194;16.394;2022-12-07T16:24:45;18.20;;;12.40;;